sensor_id;sensor_type;location;lat;lon;timestamp;pressure;altitude;pressure_sealevel;temperature;humidity
48089;BME280;33867;50.314;7.802;2022-10-31T00:01:28;100939.81;;;9.51;99.04
48089;BME280;33867;50.314;7.802;2022-10-31T00:04:48;100928.81;;;9.31;100.00
48089;BME280;33867;50.314;7.802;2022-10-31T00:08:06;100935.91;;;9.55;98.44
48089;BME280;33867;50.314;7.802;2022-10-31T00:11:26;100943.09;;;9.43;99.05
48089;BME280;33867;50.314;7.802;2022-10-31T00:14:45;100935.44;;;9.50;98.10
48089;BME280;33867;50.314;7.802;2022-10-31T00:18:06;100937.38;;;9.48;97.25
48089;BME280;33867;50.314;7.802;2022-10-31T00:21:25;100932.09;;;9.46;98.35
48089;BME280;33867;50.314;7.802;2022-10-31T00:24:44;100921.97;;;9.38;96.68
48089;BME280;33867;50.314;7.802;2022-10-31T00:28:05;100928.69;;;9.33;98.36
48089;BME280;33867;50.314;7.802;2022-10-31T00:31:25;100919.63;;;9.34;98.33
48089;BME280;33867;50.314;7.802;2022-10-31T00:34:44;100919.03;;;9.42;97.47
48089;BME280;33867;50.314;7.802;2022-10-31T00:38:03;100921.72;;;9.42;96.91
48089;BME280;33867;50.314;7.802;2022-10-31T00:41:22;100925.28;;;9.42;96.38
48089;BME280;33867;50.314;7.802;2022-10-31T00:44:41;100925.53;;;9.50;96.77
48089;BME280;33867;50.314;7.802;2022-10-31T00:48:00;100943.38;;;9.51;96.74
48089;BME280;33867;50.314;7.802;2022-10-31T00:51:19;100929.78;;;9.19;100.00
48089;BME280;33867;50.314;7.802;2022-10-31T00:54:38;100934.78;;;9.13;100.00
48089;BME280;33867;50.314;7.802;2022-10-31T00:57:57;100942.06;;;8.99;100.00
48089;BME280;33867;50.314;7.802;2022-10-31T01:01:17;100929.88;;;8.95;100.00
48089;BME280;33867;50.314;7.802;2022-10-31T01:04:36;100930.84;;;8.94;100.00
48089;BME280;33867;50.314;7.802;2022-10-31T01:07:55;100939.88;;;8.93;100.00
48089;BME280;33867;50.314;7.802;2022-10-31T01:11:19;100936.97;;;9.19;100.00
48089;BME280;33867;50.314;7.802;2022-10-31T01:14:42;100941.75;;;9.26;100.00
48089;BME280;33867;50.314;7.802;2022-10-31T01:18:01;100934.91;;;9.22;100.00
48089;BME280;33867;50.314;7.802;2022-10-31T01:21:25;100941.50;;;9.29;99.20
48089;BME280;33867;50.314;7.802;2022-10-31T01:24:45;100931.59;;;9.07;100.00
48089;BME280;33867;50.314;7.802;2022-10-31T01:28:03;100931.38;;;9.22;100.00
48089;BME280;33867;50.314;7.802;2022-10-31T01:31:25;100940.06;;;9.25;100.00
48089;BME280;33867;50.314;7.802;2022-10-31T01:34:44;100927.69;;;9.34;100.00
48089;BME280;33867;50.314;7.802;2022-10-31T01:38:05;100925.53;;;9.39;98.05
48089;BME280;33867;50.314;7.802;2022-10-31T01:41:27;100925.13;;;9.32;98.37
48089;BME280;33867;50.314;7.802;2022-10-31T01:44:59;100921.34;;;9.35;97.40
48089;BME280;33867;50.314;7.802;2022-10-31T01:48:22;100930.91;;;9.39;97.60
48089;BME280;33867;50.314;7.802;2022-10-31T01:51:46;100927.72;;;9.45;96.92
48089;BME280;33867;50.314;7.802;2022-10-31T01:55:13;100925.66;;;9.37;97.03
48089;BME280;33867;50.314;7.802;2022-10-31T01:58:35;100922.59;;;9.31;97.19
48089;BME280;33867;50.314;7.802;2022-10-31T02:01:54;100927.69;;;9.34;97.03
48089;BME280;33867;50.314;7.802;2022-10-31T02:05:16;100923.69;;;9.28;97.53
48089;BME280;33867;50.314;7.802;2022-10-31T02:08:37;100915.25;;;9.33;96.99
48089;BME280;33867;50.314;7.802;2022-10-31T02:11:59;100912.44;;;9.34;97.16
48089;BME280;33867;50.314;7.802;2022-10-31T02:15:18;100913.91;;;9.38;97.12
48089;BME280;33867;50.314;7.802;2022-10-31T02:18:38;100907.06;;;9.46;97.08
48089;BME280;33867;50.314;7.802;2022-10-31T02:22:04;100913.19;;;9.48;96.60
48089;BME280;33867;50.314;7.802;2022-10-31T02:36:12;100912.22;;;9.37;98.01
48089;BME280;33867;50.314;7.802;2022-10-31T02:43:58;100902.31;;;9.60;96.44
48089;BME280;33867;50.314;7.802;2022-10-31T02:47:27;100899.63;;;9.49;96.84
48089;BME280;33867;50.314;7.802;2022-10-31T02:50:56;100912.81;;;9.52;97.58
48089;BME280;33867;50.314;7.802;2022-10-31T02:54:18;100913.78;;;9.51;97.58
48089;BME280;33867;50.314;7.802;2022-10-31T02:57:39;100901.59;;;9.47;98.84
48089;BME280;33867;50.314;7.802;2022-10-31T03:01:10;100909.88;;;9.55;99.07
48089;BME280;33867;50.314;7.802;2022-10-31T03:08:59;100911.31;;;9.71;97.15
48089;BME280;33867;50.314;7.802;2022-10-31T03:12:05;100902.50;;;9.68;98.00
48089;BME280;33867;50.314;7.802;2022-10-31T03:15:30;100912.44;;;9.57;98.57
48089;BME280;33867;50.314;7.802;2022-10-31T03:19:09;100912.56;;;9.33;100.00
48089;BME280;33867;50.314;7.802;2022-10-31T03:22:31;100909.50;;;9.15;100.00
48089;BME280;33867;50.314;7.802;2022-10-31T03:25:53;100907.31;;;9.31;100.00
48089;BME280;33867;50.314;7.802;2022-10-31T03:29:21;100905.00;;;9.49;99.30
48089;BME280;33867;50.314;7.802;2022-10-31T03:32:45;100897.41;;;9.43;99.11
48089;BME280;33867;50.314;7.802;2022-10-31T03:36:08;100904.50;;;9.55;97.99
48089;BME280;33867;50.314;7.802;2022-10-31T03:39:30;100911.69;;;9.66;97.24
48089;BME280;33867;50.314;7.802;2022-10-31T03:42:54;100909.63;;;9.58;98.69
48089;BME280;33867;50.314;7.802;2022-10-31T03:46:15;100911.47;;;9.35;98.80
48089;BME280;33867;50.314;7.802;2022-10-31T03:49:36;100903.28;;;9.48;98.55
48089;BME280;33867;50.314;7.802;2022-10-31T03:53:05;100899.50;;;9.28;99.55
48089;BME280;33867;50.314;7.802;2022-10-31T03:56:32;100899.50;;;9.40;100.00
48089;BME280;33867;50.314;7.802;2022-10-31T04:00:12;100899.63;;;9.49;98.54
48089;BME280;33867;50.314;7.802;2022-10-31T04:03:38;100891.31;;;9.41;99.43
48089;BME280;33867;50.314;7.802;2022-10-31T04:07:01;100893.16;;;9.41;98.84
48089;BME280;33867;50.314;7.802;2022-10-31T04:10:22;100905.19;;;9.68;97.67
48089;BME280;33867;50.314;7.802;2022-10-31T04:13:44;100905.31;;;9.78;96.30
48089;BME280;33867;50.314;7.802;2022-10-31T04:17:16;100905.84;;;9.61;97.04
48089;BME280;33867;50.314;7.802;2022-10-31T04:20:40;100901.19;;;9.63;97.48
48089;BME280;33867;50.314;7.802;2022-10-31T04:23:59;100904.00;;;9.61;96.84
48089;BME280;33867;50.314;7.802;2022-10-31T04:27:22;100898.84;;;9.58;97.66
48089;BME280;33867;50.314;7.802;2022-10-31T04:30:41;100900.59;;;9.59;97.27
48089;BME280;33867;50.314;7.802;2022-10-31T04:34:00;100895.19;;;9.71;96.90
48089;BME280;33867;50.314;7.802;2022-10-31T04:37:19;100890.34;;;9.20;98.93
48089;BME280;33867;50.314;7.802;2022-10-31T04:40:39;100897.78;;;9.38;98.94
48089;BME280;33867;50.314;7.802;2022-10-31T04:44:18;100904.22;;;9.58;97.47
48089;BME280;33867;50.314;7.802;2022-10-31T04:47:41;100898.13;;;9.56;96.97
48089;BME280;33867;50.314;7.802;2022-10-31T04:51:00;100906.56;;;9.63;96.67
48089;BME280;33867;50.314;7.802;2022-10-31T04:54:20;100905.97;;;9.59;96.63
48089;BME280;33867;50.314;7.802;2022-10-31T04:57:43;100903.03;;;9.51;97.26
48089;BME280;33867;50.314;7.802;2022-10-31T05:01:02;100904.63;;;9.43;97.80
48089;BME280;33867;50.314;7.802;2022-10-31T05:04:22;100904.63;;;9.54;97.18
48089;BME280;33867;50.314;7.802;2022-10-31T05:07:42;100893.53;;;9.47;96.93
48089;BME280;33867;50.314;7.802;2022-10-31T05:11:03;100892.53;;;9.48;98.05
48089;BME280;33867;50.314;7.802;2022-10-31T05:14:22;100885.19;;;9.50;97.37
48089;BME280;33867;50.314;7.802;2022-10-31T05:18:13;100890.94;;;9.46;97.78
48089;BME280;33867;50.314;7.802;2022-10-31T05:21:51;100886.41;;;9.46;97.51
48089;BME280;33867;50.314;7.802;2022-10-31T05:25:12;100876.75;;;9.44;96.71
48089;BME280;33867;50.314;7.802;2022-10-31T05:28:31;100866.75;;;9.46;96.34
48089;BME280;33867;50.314;7.802;2022-10-31T05:31:50;100875.78;;;9.33;96.63
48089;BME280;33867;50.314;7.802;2022-10-31T05:35:30;100876.28;;;9.05;98.00
48089;BME280;33867;50.314;7.802;2022-10-31T05:39:12;100873.72;;;9.15;98.45
48089;BME280;33867;50.314;7.802;2022-10-31T05:42:39;100873.72;;;9.03;99.49
48089;BME280;33867;50.314;7.802;2022-10-31T05:45:58;100872.13;;;8.90;100.00
48089;BME280;33867;50.314;7.802;2022-10-31T05:49:53;100867.63;;;8.90;100.00
48089;BME280;33867;50.314;7.802;2022-10-31T05:53:30;100860.28;;;9.03;99.13
48089;BME280;33867;50.314;7.802;2022-10-31T05:56:49;100864.81;;;9.25;98.07
48089;BME280;33867;50.314;7.802;2022-10-31T06:00:11;100866.66;;;9.14;97.73
48089;BME280;33867;50.314;7.802;2022-10-31T06:03:39;100867.25;;;9.17;98.27
48089;BME280;33867;50.314;7.802;2022-10-31T06:07:01;100869.69;;;8.98;99.10
48089;BME280;33867;50.314;7.802;2022-10-31T06:10:20;100861.50;;;8.99;98.78
48089;BME280;33867;50.314;7.802;2022-10-31T06:13:44;100864.09;;;9.12;98.63
48089;BME280;33867;50.314;7.802;2022-10-31T06:17:10;100863.00;;;9.15;97.61
48089;BME280;33867;50.314;7.802;2022-10-31T06:20:58;100862.34;;;9.22;97.54
48089;BME280;33867;50.314;7.802;2022-10-31T06:24:17;100867.50;;;9.36;96.98
48089;BME280;33867;50.314;7.802;2022-10-31T06:27:45;100871.66;;;9.29;96.82
48089;BME280;33867;50.314;7.802;2022-10-31T06:31:07;100888.25;;;9.23;96.77
48089;BME280;33867;50.314;7.802;2022-10-31T06:34:26;100885.47;;;9.36;96.39
48089;BME280;33867;50.314;7.802;2022-10-31T06:37:55;100868.84;;;9.31;96.92
48089;BME280;33867;50.314;7.802;2022-10-31T06:41:30;100871.50;;;9.42;96.17
48089;BME280;33867;50.314;7.802;2022-10-31T06:44:49;100869.81;;;9.52;96.46
48089;BME280;33867;50.314;7.802;2022-10-31T06:48:27;100871.38;;;9.55;95.66
48089;BME280;33867;50.314;7.802;2022-10-31T06:52:11;100874.06;;;9.44;96.00
48089;BME280;33867;50.314;7.802;2022-10-31T06:55:30;100873.94;;;9.45;96.33
48089;BME280;33867;50.314;7.802;2022-10-31T06:58:49;100866.50;;;9.49;96.59
48089;BME280;33867;50.314;7.802;2022-10-31T07:02:11;100875.16;;;9.63;95.97
48089;BME280;33867;50.314;7.802;2022-10-31T07:05:33;100878.41;;;9.78;95.71
48089;BME280;33867;50.314;7.802;2022-10-31T07:08:51;100872.78;;;9.81;94.78
48089;BME280;33867;50.314;7.802;2022-10-31T07:12:11;100874.66;;;9.70;95.46
48089;BME280;33867;50.314;7.802;2022-10-31T07:15:37;100871.69;;;9.95;95.41
48089;BME280;33867;50.314;7.802;2022-10-31T07:18:56;100890.59;;;9.93;94.96
48089;BME280;33867;50.314;7.802;2022-10-31T07:22:15;100878.63;;;9.98;94.48
48089;BME280;33867;50.314;7.802;2022-10-31T07:25:36;100885.59;;;10.00;94.05
48089;BME280;33867;50.314;7.802;2022-10-31T07:28:55;100877.00;;;10.06;93.98
48089;BME280;33867;50.314;7.802;2022-10-31T07:32:16;100883.94;;;9.65;95.09
48089;BME280;33867;50.314;7.802;2022-10-31T07:35:43;100890.00;;;9.90;95.54
48089;BME280;33867;50.314;7.802;2022-10-31T07:39:04;100900.59;;;9.59;95.79
48089;BME280;33867;50.314;7.802;2022-10-31T07:42:26;100890.94;;;9.46;97.82
48089;BME280;33867;50.314;7.802;2022-10-31T07:45:50;100888.59;;;9.75;96.58
48089;BME280;33867;50.314;7.802;2022-10-31T07:49:41;100889.88;;;9.91;96.75
48089;BME280;33867;50.314;7.802;2022-10-31T07:53:19;100890.56;;;9.73;96.92
48089;BME280;33867;50.314;7.802;2022-10-31T07:56:42;100891.78;;;9.35;98.29
48089;BME280;33867;50.314;7.802;2022-10-31T08:00:03;100887.09;;;9.71;97.90
48089;BME280;33867;50.314;7.802;2022-10-31T08:03:34;100893.09;;;9.85;96.94
48089;BME280;33867;50.314;7.802;2022-10-31T08:07:12;100898.78;;;10.03;96.30
48089;BME280;33867;50.314;7.802;2022-10-31T08:10:36;100894.06;;;10.16;94.54
48089;BME280;33867;50.314;7.802;2022-10-31T08:13:55;100898.50;;;10.06;94.94
48089;BME280;33867;50.314;7.802;2022-10-31T08:17:16;100891.38;;;10.16;94.91
48089;BME280;33867;50.314;7.802;2022-10-31T08:20:44;100901.78;;;10.32;94.14
48089;BME280;33867;50.314;7.802;2022-10-31T08:24:03;100893.00;;;10.19;94.51
48089;BME280;33867;50.314;7.802;2022-10-31T08:27:22;100888.06;;;9.81;95.92
48089;BME280;33867;50.314;7.802;2022-10-31T08:30:41;100882.69;;;9.81;96.92
48089;BME280;33867;50.314;7.802;2022-10-31T08:34:27;100871.56;;;10.17;95.53
48089;BME280;33867;50.314;7.802;2022-10-31T08:38:05;100879.00;;;10.36;94.74
48089;BME280;33867;50.314;7.802;2022-10-31T08:41:24;100868.41;;;10.86;93.05
48089;BME280;33867;50.314;7.802;2022-10-31T08:44:44;100868.19;;;10.99;93.05
48089;BME280;33867;50.314;7.802;2022-10-31T08:48:05;100861.41;;;11.25;91.71
48089;BME280;33867;50.314;7.802;2022-10-31T08:51:25;100854.88;;;11.28;91.35
48089;BME280;33867;50.314;7.802;2022-10-31T08:54:47;100857.91;;;11.44;91.38
48089;BME280;33867;50.314;7.802;2022-10-31T08:58:25;100863.81;;;10.98;91.52
48089;BME280;33867;50.314;7.802;2022-10-31T09:01:49;100853.69;;;11.21;92.74
48089;BME280;33867;50.314;7.802;2022-10-31T09:05:08;100857.53;;;11.68;91.30
48089;BME280;33867;50.314;7.802;2022-10-31T09:08:30;100843.72;;;12.02;89.15
48089;BME280;33867;50.314;7.802;2022-10-31T09:11:49;100834.19;;;12.07;89.10
48089;BME280;33867;50.314;7.802;2022-10-31T09:15:28;100841.00;;;11.82;89.49
48089;BME280;33867;50.314;7.802;2022-10-31T09:19:07;100834.75;;;12.49;90.08
48089;BME280;33867;50.314;7.802;2022-10-31T09:22:26;100828.25;;;12.89;88.12
48089;BME280;33867;50.314;7.802;2022-10-31T09:25:46;100833.09;;;12.95;86.71
48089;BME280;33867;50.314;7.802;2022-10-31T09:29:29;100820.25;;;13.07;85.92
48089;BME280;33867;50.314;7.802;2022-10-31T09:32:59;100828.59;;;13.13;85.70
48089;BME280;33867;50.314;7.802;2022-10-31T09:36:18;100815.56;;;13.36;86.43
48089;BME280;33867;50.314;7.802;2022-10-31T09:39:37;100812.44;;;13.41;85.35
48089;BME280;33867;50.314;7.802;2022-10-31T09:47:02;100810.88;;;13.38;85.55
48089;BME280;33867;50.314;7.802;2022-10-31T09:50:32;100809.25;;;13.45;84.62
48089;BME280;33867;50.314;7.802;2022-10-31T09:54:14;100799.19;;;13.65;85.20
48089;BME280;33867;50.314;7.802;2022-10-31T09:57:36;100798.78;;;13.96;84.06
48089;BME280;33867;50.314;7.802;2022-10-31T10:01:00;100788.28;;;14.11;82.99
48089;BME280;33867;50.314;7.802;2022-10-31T10:04:41;100786.41;;;14.29;83.34
48089;BME280;33867;50.314;7.802;2022-10-31T10:08:12;100789.97;;;14.47;82.63
48089;BME280;33867;50.314;7.802;2022-10-31T10:12:25;100785.22;;;14.75;81.97
48089;BME280;33867;50.314;7.802;2022-10-31T10:16:09;100773.03;;;14.79;81.26
48089;BME280;33867;50.314;7.802;2022-10-31T10:20:01;100778.31;;;15.07;80.30
48089;BME280;33867;50.314;7.802;2022-10-31T10:27:09;100778.75;;;15.36;80.64
48089;BME280;33867;50.314;7.802;2022-10-31T10:34:27;100754.25;;;15.62;81.15
48089;BME280;33867;50.314;7.802;2022-10-31T10:37:52;100761.78;;;15.34;78.90
48089;BME280;33867;50.314;7.802;2022-10-31T10:41:16;100748.81;;;15.62;81.48
48089;BME280;33867;50.314;7.802;2022-10-31T10:44:44;100752.06;;;15.66;79.32
48089;BME280;33867;50.314;7.802;2022-10-31T10:52:00;100750.72;;;15.94;80.65
48089;BME280;33867;50.314;7.802;2022-10-31T10:55:32;100748.19;;;15.93;78.76
48089;BME280;33867;50.314;7.802;2022-10-31T10:58:54;100743.63;;;16.01;77.99
48089;BME280;33867;50.314;7.802;2022-10-31T11:02:19;100734.78;;;16.16;79.55
48089;BME280;33867;50.314;7.802;2022-10-31T11:05:53;100746.34;;;16.26;78.77
48089;BME280;33867;50.314;7.802;2022-10-31T11:09:16;100728.66;;;16.46;77.53
48089;BME280;33867;50.314;7.802;2022-10-31T11:12:35;100717.97;;;16.36;75.70
48089;BME280;33867;50.314;7.802;2022-10-31T11:19:24;100714.91;;;16.07;76.44
48089;BME280;33867;50.314;7.802;2022-10-31T11:22:47;100700.47;;;16.31;79.11
48089;BME280;33867;50.314;7.802;2022-10-31T11:26:18;100699.78;;;16.29;76.30
48089;BME280;33867;50.314;7.802;2022-10-31T11:29:38;100691.50;;;15.90;77.47
48089;BME280;33867;50.314;7.802;2022-10-31T11:32:57;100696.94;;;15.82;77.67
48089;BME280;33867;50.314;7.802;2022-10-31T11:36:24;100701.19;;;16.00;78.38
48089;BME280;33867;50.314;7.802;2022-10-31T11:39:46;100703.34;;;16.37;79.34
48089;BME280;33867;50.314;7.802;2022-10-31T11:43:15;100687.34;;;16.43;78.09
48089;BME280;33867;50.314;7.802;2022-10-31T11:46:41;100684.31;;;16.46;77.97
48089;BME280;33867;50.314;7.802;2022-10-31T11:50:08;100682.81;;;16.27;76.03
48089;BME280;33867;50.314;7.802;2022-10-31T11:53:33;100656.66;;;16.18;78.00
48089;BME280;33867;50.314;7.802;2022-10-31T11:56:52;100655.47;;;16.36;77.70
48089;BME280;33867;50.314;7.802;2022-10-31T12:03:51;100655.97;;;16.32;77.71
48089;BME280;33867;50.314;7.802;2022-10-31T12:07:13;100653.22;;;16.40;75.89
48089;BME280;33867;50.314;7.802;2022-10-31T12:26:11;100621.91;;;17.00;75.24
48089;BME280;33867;50.314;7.802;2022-10-31T12:29:39;100604.34;;;17.33;75.12
48089;BME280;33867;50.314;7.802;2022-10-31T12:33:14;100591.94;;;17.31;74.78
48089;BME280;33867;50.314;7.802;2022-10-31T12:44:21;100583.69;;;17.16;75.05
48089;BME280;33867;50.314;7.802;2022-10-31T12:55:48;100567.19;;;18.01;73.60
48089;BME280;33867;50.314;7.802;2022-10-31T13:06:07;100548.06;;;17.86;73.53
48089;BME280;33867;50.314;7.802;2022-10-31T13:10:01;100531.84;;;18.07;72.24
48089;BME280;33867;50.314;7.802;2022-10-31T13:17:00;100515.50;;;17.78;72.64
48089;BME280;33867;50.314;7.802;2022-10-31T13:20:41;100520.66;;;17.50;72.97
48089;BME280;33867;50.314;7.802;2022-10-31T13:24:04;100517.72;;;17.37;74.28
48089;BME280;33867;50.314;7.802;2022-10-31T13:30:57;100522.91;;;17.69;73.90
48089;BME280;33867;50.314;7.802;2022-10-31T13:34:26;100512.03;;;17.61;73.71
48089;BME280;33867;50.314;7.802;2022-10-31T13:37:57;100510.59;;;17.73;75.29
48089;BME280;33867;50.314;7.802;2022-10-31T13:41:55;100496.31;;;17.86;73.80
48089;BME280;33867;50.314;7.802;2022-10-31T13:45:23;100494.97;;;17.52;73.89
48089;BME280;33867;50.314;7.802;2022-10-31T13:48:42;100503.44;;;17.72;74.74
48089;BME280;33867;50.314;7.802;2022-10-31T13:55:36;100498.44;;;17.61;75.30
48089;BME280;33867;50.314;7.802;2022-10-31T13:59:16;100491.25;;;17.31;74.18
48089;BME280;33867;50.314;7.802;2022-10-31T14:02:45;100475.56;;;17.18;76.47
48089;BME280;33867;50.314;7.802;2022-10-31T14:06:06;100491.59;;;17.28;76.25
48089;BME280;33867;50.314;7.802;2022-10-31T14:09:33;100503.91;;;17.23;75.18
48089;BME280;33867;50.314;7.802;2022-10-31T14:13:03;100502.19;;;17.22;76.49
48089;BME280;33867;50.314;7.802;2022-10-31T14:16:28;100481.97;;;17.02;75.42
48089;BME280;33867;50.314;7.802;2022-10-31T14:26:55;100458.59;;;17.31;76.29
48089;BME280;33867;50.314;7.802;2022-10-31T14:30:19;100461.19;;;16.86;77.24
48089;BME280;33867;50.314;7.802;2022-10-31T14:33:42;100447.31;;;16.81;78.20
48089;BME280;33867;50.314;7.802;2022-10-31T14:41:11;100437.91;;;16.84;77.26
48089;BME280;33867;50.314;7.802;2022-10-31T14:51:48;100422.22;;;16.71;78.57
48089;BME280;33867;50.314;7.802;2022-10-31T14:55:11;100421.38;;;16.71;78.71
48089;BME280;33867;50.314;7.802;2022-10-31T14:58:37;100417.28;;;16.89;78.40
48089;BME280;33867;50.314;7.802;2022-10-31T15:02:07;100419.09;;;16.97;78.20
48089;BME280;33867;50.314;7.802;2022-10-31T15:05:29;100418.75;;;16.77;78.12
48089;BME280;33867;50.314;7.802;2022-10-31T15:08:51;100411.59;;;16.53;78.38
48089;BME280;33867;50.314;7.802;2022-10-31T15:12:26;100402.97;;;16.50;79.77
48089;BME280;33867;50.314;7.802;2022-10-31T15:15:45;100398.06;;;16.45;79.87
48089;BME280;33867;50.314;7.802;2022-10-31T15:19:06;100414.50;;;16.52;79.48
48089;BME280;33867;50.314;7.802;2022-10-31T15:22:28;100412.78;;;16.28;79.99
48089;BME280;33867;50.314;7.802;2022-10-31T15:25:49;100393.91;;;16.03;80.89
48089;BME280;33867;50.314;7.802;2022-10-31T15:29:14;100394.69;;;15.89;82.77
48089;BME280;33867;50.314;7.802;2022-10-31T15:32:34;100402.25;;;16.02;82.88
48089;BME280;33867;50.314;7.802;2022-10-31T15:35:55;100398.16;;;15.75;83.04
48089;BME280;33867;50.314;7.802;2022-10-31T15:39:20;100364.16;;;15.24;85.92
48089;BME280;33867;50.314;7.802;2022-10-31T15:42:40;100371.81;;;15.12;86.59
48089;BME280;33867;50.314;7.802;2022-10-31T15:46:00;100369.06;;;15.36;85.87
48089;BME280;33867;50.314;7.802;2022-10-31T15:49:41;100339.34;;;14.96;87.18
48089;BME280;33867;50.314;7.802;2022-10-31T15:53:01;100336.97;;;14.93;87.77
48089;BME280;33867;50.314;7.802;2022-10-31T15:56:24;100336.47;;;14.81;87.94
48089;BME280;33867;50.314;7.802;2022-10-31T15:59:46;100305.47;;;14.75;88.91
48089;BME280;33867;50.314;7.802;2022-10-31T16:06:34;100301.06;;;14.66;88.83
48089;BME280;33867;50.314;7.802;2022-10-31T16:09:59;100267.00;;;14.80;87.79
48089;BME280;33867;50.314;7.802;2022-10-31T16:13:22;100258.00;;;14.96;87.39
48089;BME280;33867;50.314;7.802;2022-10-31T16:16:48;100231.25;;;14.84;87.52
48089;BME280;33867;50.314;7.802;2022-10-31T16:20:19;100325.16;;;14.69;87.95
48089;BME280;33867;50.314;7.802;2022-10-31T16:23:47;100327.19;;;14.59;88.26
48089;BME280;33867;50.314;7.802;2022-10-31T16:27:27;100330.22;;;14.48;89.04
48089;BME280;33867;50.314;7.802;2022-10-31T16:30:49;100331.56;;;14.36;89.93
48089;BME280;33867;50.314;7.802;2022-10-31T16:34:16;100329.47;;;14.05;92.02
48089;BME280;33867;50.314;7.802;2022-10-31T16:37:40;100319.31;;;13.99;92.25
48089;BME280;33867;50.314;7.802;2022-10-31T16:41:00;100306.63;;;13.91;92.72
48089;BME280;33867;50.314;7.802;2022-10-31T16:44:25;100307.16;;;14.11;91.28
48089;BME280;33867;50.314;7.802;2022-10-31T16:47:44;100306.47;;;14.17;90.55
48089;BME280;33867;50.314;7.802;2022-10-31T16:51:03;100316.97;;;14.20;89.68
48089;BME280;33867;50.314;7.802;2022-10-31T16:54:22;100327.63;;;14.14;89.57
48089;BME280;33867;50.314;7.802;2022-10-31T16:57:47;100323.66;;;13.84;91.06
48089;BME280;33867;50.314;7.802;2022-10-31T17:01:07;100319.94;;;13.77;91.37
48089;BME280;33867;50.314;7.802;2022-10-31T17:04:26;100311.94;;;13.59;92.56
48089;BME280;33867;50.314;7.802;2022-10-31T17:07:45;100339.13;;;13.49;93.00
48089;BME280;33867;50.314;7.802;2022-10-31T17:11:20;100349.38;;;13.37;92.80
48089;BME280;33867;50.314;7.802;2022-10-31T17:15:26;100361.00;;;13.04;95.31
48089;BME280;33867;50.314;7.802;2022-10-31T17:18:45;100351.31;;;12.93;97.10
48089;BME280;33867;50.314;7.802;2022-10-31T17:22:05;100345.84;;;12.85;97.32
48089;BME280;33867;50.314;7.802;2022-10-31T17:25:27;100374.78;;;12.93;96.45
48089;BME280;33867;50.314;7.802;2022-10-31T17:28:46;100381.47;;;13.06;93.81
48089;BME280;33867;50.314;7.802;2022-10-31T17:32:05;100388.91;;;12.86;94.20
48089;BME280;33867;50.314;7.802;2022-10-31T17:35:25;100389.91;;;12.85;93.62
48089;BME280;33867;50.314;7.802;2022-10-31T17:38:44;100377.75;;;12.64;96.45
48089;BME280;33867;50.314;7.802;2022-10-31T17:42:03;100365.91;;;12.56;96.39
48089;BME280;33867;50.314;7.802;2022-10-31T17:45:24;100363.19;;;12.39;97.33
48089;BME280;33867;50.314;7.802;2022-10-31T17:48:43;100364.28;;;12.46;96.43
48089;BME280;33867;50.314;7.802;2022-10-31T17:52:02;100354.38;;;12.54;95.30
48089;BME280;33867;50.314;7.802;2022-10-31T17:55:22;100365.75;;;12.40;95.00
48089;BME280;33867;50.314;7.802;2022-10-31T17:58:41;100367.38;;;12.33;96.46
48089;BME280;33867;50.314;7.802;2022-10-31T18:02:00;100372.84;;;12.41;94.54
48089;BME280;33867;50.314;7.802;2022-10-31T18:05:19;100359.63;;;12.03;97.29
48089;BME280;33867;50.314;7.802;2022-10-31T18:08:39;100368.00;;;12.09;96.35
48089;BME280;33867;50.314;7.802;2022-10-31T18:11:59;100384.34;;;12.08;96.25
48089;BME280;33867;50.314;7.802;2022-10-31T18:15:18;100384.47;;;11.88;99.14
48089;BME280;33867;50.314;7.802;2022-10-31T18:18:38;100370.88;;;11.80;99.83
48089;BME280;33867;50.314;7.802;2022-10-31T18:21:57;100364.66;;;11.97;96.73
48089;BME280;33867;50.314;7.802;2022-10-31T18:25:17;100360.66;;;12.02;95.81
48089;BME280;33867;50.314;7.802;2022-10-31T18:28:36;100368.50;;;11.95;95.37
48089;BME280;33867;50.314;7.802;2022-10-31T18:31:56;100361.94;;;11.70;98.10
48089;BME280;33867;50.314;7.802;2022-10-31T18:35:15;100365.16;;;11.83;96.42
48089;BME280;33867;50.314;7.802;2022-10-31T18:38:42;100359.34;;;11.78;95.23
48089;BME280;33867;50.314;7.802;2022-10-31T18:42:02;100360.34;;;11.77;95.45
48089;BME280;33867;50.314;7.802;2022-10-31T18:45:21;100363.09;;;11.67;95.45
48089;BME280;33867;50.314;7.802;2022-10-31T18:48:41;100369.50;;;11.39;98.90
48089;BME280;33867;50.314;7.802;2022-10-31T18:52:01;100370.53;;;11.28;99.53
48089;BME280;33867;50.314;7.802;2022-10-31T18:55:20;100355.53;;;11.16;100.00
48089;BME280;33867;50.314;7.802;2022-10-31T18:58:39;100371.53;;;11.27;100.00
48089;BME280;33867;50.314;7.802;2022-10-31T19:01:58;100368.56;;;11.21;99.68
48089;BME280;33867;50.314;7.802;2022-10-31T19:05:17;100371.38;;;11.29;97.99
48089;BME280;33867;50.314;7.802;2022-10-31T19:08:37;100352.41;;;11.11;100.00
48089;BME280;33867;50.314;7.802;2022-10-31T19:11:57;100358.78;;;11.20;98.36
48089;BME280;33867;50.314;7.802;2022-10-31T19:15:16;100339.28;;;10.98;99.78
48089;BME280;33867;50.314;7.802;2022-10-31T19:18:36;100337.16;;;11.02;99.04
48089;BME280;33867;50.314;7.802;2022-10-31T19:21:55;100347.69;;;10.86;99.19
48089;BME280;33867;50.314;7.802;2022-10-31T19:25:14;100345.13;;;10.84;100.00
48089;BME280;33867;50.314;7.802;2022-10-31T19:28:35;100340.28;;;10.97;98.76
48089;BME280;33867;50.314;7.802;2022-10-31T19:31:55;100336.03;;;10.95;98.52
48089;BME280;33867;50.314;7.802;2022-10-31T19:35:14;100334.72;;;10.99;97.19
48089;BME280;33867;50.314;7.802;2022-10-31T19:38:35;100327.50;;;10.99;95.24
48089;BME280;33867;50.314;7.802;2022-10-31T19:41:54;100330.69;;;10.75;99.12
48089;BME280;33867;50.314;7.802;2022-10-31T19:45:13;100334.69;;;10.71;99.22